sensor_id;sensor_type;location;lat;lon;timestamp;pressure;altitude;pressure_sealevel;temperature;humidity
64628;BME280;68467;50.960;0.314;2024-02-16T00:00:23;98941.14;;;13.62;100.00
64628;BME280;68467;50.960;0.314;2024-02-16T00:02:51;98941.87;;;13.22;100.00
64628;BME280;68467;50.960;0.314;2024-02-16T00:05:19;98946.10;;;13.43;100.00
64628;BME280;68467;50.960;0.314;2024-02-16T00:07:46;98948.93;;;13.34;100.00
64628;BME280;68467;50.960;0.314;2024-02-16T00:10:13;98956.70;;;13.47;100.00
64628;BME280;68467;50.960;0.314;2024-02-16T00:12:40;98951.12;;;13.42;100.00
64628;BME280;68467;50.960;0.314;2024-02-16T00:15:08;98947.68;;;13.40;100.00
64628;BME280;68467;50.960;0.314;2024-02-16T00:17:35;98948.76;;;13.47;100.00
64628;BME280;68467;50.960;0.314;2024-02-16T00:20:04;98945.25;;;13.25;100.00
64628;BME280;68467;50.960;0.314;2024-02-16T00:22:31;98947.04;;;13.72;100.00
64628;BME280;68467;50.960;0.314;2024-02-16T00:24:58;98949.25;;;13.40;100.00
64628;BME280;68467;50.960;0.314;2024-02-16T00:27:25;98942.58;;;13.94;100.00
64628;BME280;68467;50.960;0.314;2024-02-16T00:29:52;98937.50;;;14.14;100.00
64628;BME280;68467;50.960;0.314;2024-02-16T00:32:19;98939.71;;;14.36;100.00
64628;BME280;68467;50.960;0.314;2024-02-16T00:34:46;98937.07;;;14.33;100.00
64628;BME280;68467;50.960;0.314;2024-02-16T00:37:14;98933.88;;;14.45;100.00
64628;BME280;68467;50.960;0.314;2024-02-16T00:39:41;98926.71;;;14.54;100.00
64628;BME280;68467;50.960;0.314;2024-02-16T00:42:09;98926.01;;;14.20;100.00
64628;BME280;68467;50.960;0.314;2024-02-16T00:44:36;98928.60;;;13.38;100.00
64628;BME280;68467;50.960;0.314;2024-02-16T00:47:04;98930.76;;;13.42;100.00
64628;BME280;68467;50.960;0.314;2024-02-16T00:49:31;98932.88;;;12.91;100.00
64628;BME280;68467;50.960;0.314;2024-02-16T00:51:58;98935.42;;;13.06;100.00
64628;BME280;68467;50.960;0.314;2024-02-16T00:54:25;98936.24;;;12.62;100.00
64628;BME280;68467;50.960;0.314;2024-02-16T00:56:53;98944.71;;;13.35;100.00
64628;BME280;68467;50.960;0.314;2024-02-16T00:59:20;98945.16;;;13.22;100.00
64628;BME280;68467;50.960;0.314;2024-02-16T01:01:47;98944.36;;;13.21;100.00
64628;BME280;68467;50.960;0.314;2024-02-16T01:04:14;98945.08;;;13.69;100.00
64628;BME280;68467;50.960;0.314;2024-02-16T01:06:42;98938.84;;;13.61;100.00
64628;BME280;68467;50.960;0.314;2024-02-16T01:09:09;98945.47;;;14.37;100.00
64628;BME280;68467;50.960;0.314;2024-02-16T01:11:36;98945.16;;;14.15;100.00
64628;BME280;68467;50.960;0.314;2024-02-16T01:14:03;98938.03;;;14.14;100.00
64628;BME280;68467;50.960;0.314;2024-02-16T01:16:30;98942.24;;;14.11;100.00
64628;BME280;68467;50.960;0.314;2024-02-16T01:18:57;98938.57;;;14.68;100.00
64628;BME280;68467;50.960;0.314;2024-02-16T01:21:24;98932.85;;;14.84;100.00
64628;BME280;68467;50.960;0.314;2024-02-16T01:23:51;98938.59;;;14.49;100.00
64628;BME280;68467;50.960;0.314;2024-02-16T01:26:18;98939.42;;;14.54;100.00
64628;BME280;68467;50.960;0.314;2024-02-16T01:28:45;98939.07;;;14.01;100.00
64628;BME280;68467;50.960;0.314;2024-02-16T01:31:12;98934.01;;;14.18;100.00
64628;BME280;68467;50.960;0.314;2024-02-16T01:33:39;98935.61;;;14.53;100.00
64628;BME280;68467;50.960;0.314;2024-02-16T01:36:07;98935.20;;;14.98;100.00
64628;BME280;68467;50.960;0.314;2024-02-16T01:38:34;98941.49;;;14.78;100.00
64628;BME280;68467;50.960;0.314;2024-02-16T01:41:01;98943.90;;;14.85;100.00
64628;BME280;68467;50.960;0.314;2024-02-16T01:43:28;98951.47;;;14.76;100.00
64628;BME280;68467;50.960;0.314;2024-02-16T01:45:56;98954.70;;;14.40;100.00
64628;BME280;68467;50.960;0.314;2024-02-16T01:48:23;98951.23;;;14.51;100.00
64628;BME280;68467;50.960;0.314;2024-02-16T01:50:50;98950.45;;;14.17;100.00
64628;BME280;68467;50.960;0.314;2024-02-16T01:53:18;98955.39;;;13.66;100.00
64628;BME280;68467;50.960;0.314;2024-02-16T01:55:45;98959.37;;;13.58;100.00
64628;BME280;68467;50.960;0.314;2024-02-16T01:58:13;98962.36;;;13.12;100.00
64628;BME280;68467;50.960;0.314;2024-02-16T02:00:40;98962.09;;;13.33;100.00
64628;BME280;68467;50.960;0.314;2024-02-16T02:03:08;98966.47;;;13.36;100.00
64628;BME280;68467;50.960;0.314;2024-02-16T02:05:43;98966.00;;;13.12;100.00
64628;BME280;68467;50.960;0.314;2024-02-16T02:08:12;98966.42;;;12.97;100.00
64628;BME280;68467;50.960;0.314;2024-02-16T02:10:40;98968.72;;;13.01;100.00
64628;BME280;68467;50.960;0.314;2024-02-16T02:13:07;98968.70;;;13.17;100.00
64628;BME280;68467;50.960;0.314;2024-02-16T02:15:35;98965.90;;;13.83;100.00
64628;BME280;68467;50.960;0.314;2024-02-16T02:18:02;98971.57;;;13.91;100.00
64628;BME280;68467;50.960;0.314;2024-02-16T02:20:29;98971.87;;;14.34;100.00
64628;BME280;68467;50.960;0.314;2024-02-16T02:22:56;98976.98;;;13.80;100.00
64628;BME280;68467;50.960;0.314;2024-02-16T02:25:23;98984.16;;;14.56;100.00
64628;BME280;68467;50.960;0.314;2024-02-16T02:27:50;98974.15;;;14.76;100.00
64628;BME280;68467;50.960;0.314;2024-02-16T02:30:17;98979.02;;;14.90;100.00
64628;BME280;68467;50.960;0.314;2024-02-16T02:32:45;98991.76;;;14.51;100.00
64628;BME280;68467;50.960;0.314;2024-02-16T02:35:12;98995.21;;;14.01;100.00
64628;BME280;68467;50.960;0.314;2024-02-16T02:37:39;98994.20;;;14.26;100.00
64628;BME280;68467;50.960;0.314;2024-02-16T02:40:07;99002.50;;;14.06;100.00
64628;BME280;68467;50.960;0.314;2024-02-16T02:42:35;99004.14;;;14.05;100.00
64628;BME280;68467;50.960;0.314;2024-02-16T02:45:03;99003.25;;;13.84;100.00
64628;BME280;68467;50.960;0.314;2024-02-16T02:47:30;98998.30;;;14.19;100.00
64628;BME280;68467;50.960;0.314;2024-02-16T02:49:57;99004.81;;;14.24;100.00
64628;BME280;68467;50.960;0.314;2024-02-16T02:52:24;99008.46;;;14.64;100.00
64628;BME280;68467;50.960;0.314;2024-02-16T02:54:52;99011.47;;;15.67;100.00
64628;BME280;68467;50.960;0.314;2024-02-16T02:57:19;99012.44;;;15.27;100.00
64628;BME280;68467;50.960;0.314;2024-02-16T02:59:47;99007.59;;;15.52;100.00
64628;BME280;68467;50.960;0.314;2024-02-16T03:02:14;99005.15;;;15.97;100.00
64628;BME280;68467;50.960;0.314;2024-02-16T03:04:41;99001.01;;;15.05;100.00
64628;BME280;68467;50.960;0.314;2024-02-16T03:07:08;99001.83;;;14.76;100.00
64628;BME280;68467;50.960;0.314;2024-02-16T03:09:35;99004.16;;;15.18;100.00
64628;BME280;68467;50.960;0.314;2024-02-16T03:12:02;99001.36;;;14.50;100.00
64628;BME280;68467;50.960;0.314;2024-02-16T03:14:29;99005.04;;;15.04;100.00
64628;BME280;68467;50.960;0.314;2024-02-16T03:16:56;99004.41;;;14.64;100.00
64628;BME280;68467;50.960;0.314;2024-02-16T03:19:23;99002.57;;;15.27;100.00
64628;BME280;68467;50.960;0.314;2024-02-16T03:21:51;99001.93;;;14.50;100.00
64628;BME280;68467;50.960;0.314;2024-02-16T03:24:18;98995.41;;;14.71;100.00
64628;BME280;68467;50.960;0.314;2024-02-16T03:26:45;98996.79;;;15.16;100.00
64628;BME280;68467;50.960;0.314;2024-02-16T03:29:12;98998.26;;;15.29;100.00
64628;BME280;68467;50.960;0.314;2024-02-16T03:31:39;98998.39;;;15.78;100.00
64628;BME280;68467;50.960;0.314;2024-02-16T03:34:06;99005.10;;;15.14;100.00
64628;BME280;68467;50.960;0.314;2024-02-16T03:36:34;99004.49;;;14.80;100.00
64628;BME280;68467;50.960;0.314;2024-02-16T03:39:00;99002.37;;;14.82;100.00
64628;BME280;68467;50.960;0.314;2024-02-16T03:41:27;99007.49;;;15.08;100.00
64628;BME280;68467;50.960;0.314;2024-02-16T03:43:54;99008.27;;;15.78;100.00
64628;BME280;68467;50.960;0.314;2024-02-16T03:46:21;99015.76;;;15.30;100.00
64628;BME280;68467;50.960;0.314;2024-02-16T03:48:48;99021.86;;;15.75;100.00
64628;BME280;68467;50.960;0.314;2024-02-16T03:51:15;99023.20;;;15.11;100.00
64628;BME280;68467;50.960;0.314;2024-02-16T03:53:43;99017.35;;;15.80;100.00
64628;BME280;68467;50.960;0.314;2024-02-16T03:56:10;99015.25;;;15.93;100.00
64628;BME280;68467;50.960;0.314;2024-02-16T03:58:38;99026.10;;;15.68;100.00
64628;BME280;68467;50.960;0.314;2024-02-16T04:01:05;99036.22;;;15.36;100.00
64628;BME280;68467;50.960;0.314;2024-02-16T04:03:32;99042.29;;;15.40;100.00
64628;BME280;68467;50.960;0.314;2024-02-16T04:05:59;99047.36;;;15.59;100.00
64628;BME280;68467;50.960;0.314;2024-02-16T04:08:26;99054.99;;;15.14;100.00
64628;BME280;68467;50.960;0.314;2024-02-16T04:10:54;99068.44;;;15.66;100.00
64628;BME280;68467;50.960;0.314;2024-02-16T04:13:20;99063.18;;;14.60;100.00
64628;BME280;68467;50.960;0.314;2024-02-16T04:15:48;99066.71;;;14.80;100.00
64628;BME280;68467;50.960;0.314;2024-02-16T04:18:15;99072.75;;;14.94;100.00
64628;BME280;68467;50.960;0.314;2024-02-16T04:20:43;99078.09;;;14.26;100.00
64628;BME280;68467;50.960;0.314;2024-02-16T04:23:11;99092.26;;;14.28;100.00
64628;BME280;68467;50.960;0.314;2024-02-16T04:25:38;99091.98;;;14.16;100.00
64628;BME280;68467;50.960;0.314;2024-02-16T04:28:05;99095.28;;;14.53;100.00
64628;BME280;68467;50.960;0.314;2024-02-16T04:30:32;99101.67;;;14.13;100.00
64628;BME280;68467;50.960;0.314;2024-02-16T04:32:59;99108.22;;;14.93;100.00
64628;BME280;68467;50.960;0.314;2024-02-16T04:35:26;99118.33;;;14.63;100.00
64628;BME280;68467;50.960;0.314;2024-02-16T04:37:53;99127.03;;;14.80;100.00
64628;BME280;68467;50.960;0.314;2024-02-16T04:40:20;99128.36;;;14.27;100.00
64628;BME280;68467;50.960;0.314;2024-02-16T04:42:47;99136.79;;;14.79;100.00
64628;BME280;68467;50.960;0.314;2024-02-16T04:45:14;99137.37;;;14.08;100.00
64628;BME280;68467;50.960;0.314;2024-02-16T04:47:41;99138.92;;;14.47;100.00
64628;BME280;68467;50.960;0.314;2024-02-16T04:50:09;99139.51;;;14.89;100.00
64628;BME280;68467;50.960;0.314;2024-02-16T04:52:37;99144.99;;;14.19;100.00
64628;BME280;68467;50.960;0.314;2024-02-16T04:55:05;99153.71;;;14.64;100.00
64628;BME280;68467;50.960;0.314;2024-02-16T04:57:33;99156.71;;;14.58;100.00
64628;BME280;68467;50.960;0.314;2024-02-16T05:00:00;99152.90;;;14.30;100.00
64628;BME280;68467;50.960;0.314;2024-02-16T05:02:28;99151.65;;;14.56;100.00
64628;BME280;68467;50.960;0.314;2024-02-16T05:04:55;99146.71;;;14.79;100.00
64628;BME280;68467;50.960;0.314;2024-02-16T05:07:22;99136.64;;;14.49;100.00
64628;BME280;68467;50.960;0.314;2024-02-16T05:09:49;99131.10;;;14.77;100.00
64628;BME280;68467;50.960;0.314;2024-02-16T05:12:17;99141.36;;;14.86;100.00
64628;BME280;68467;50.960;0.314;2024-02-16T05:14:47;99144.48;;;14.90;100.00
64628;BME280;68467;50.960;0.314;2024-02-16T05:17:15;99151.09;;;14.64;100.00
64628;BME280;68467;50.960;0.314;2024-02-16T05:19:42;99159.20;;;14.53;100.00
64628;BME280;68467;50.960;0.314;2024-02-16T05:22:09;99163.48;;;14.24;100.00
64628;BME280;68467;50.960;0.314;2024-02-16T05:24:35;99171.12;;;14.99;100.00
64628;BME280;68467;50.960;0.314;2024-02-16T05:27:03;99171.38;;;14.32;100.00
64628;BME280;68467;50.960;0.314;2024-02-16T05:29:30;99179.99;;;15.18;100.00
64628;BME280;68467;50.960;0.314;2024-02-16T05:31:57;99181.97;;;14.41;100.00
64628;BME280;68467;50.960;0.314;2024-02-16T05:34:25;99180.91;;;14.31;100.00
64628;BME280;68467;50.960;0.314;2024-02-16T05:36:52;99178.13;;;14.92;100.00
64628;BME280;68467;50.960;0.314;2024-02-16T05:39:19;99178.23;;;14.20;100.00
64628;BME280;68467;50.960;0.314;2024-02-16T05:41:46;99185.50;;;14.79;100.00
64628;BME280;68467;50.960;0.314;2024-02-16T05:44:14;99191.80;;;14.82;100.00
64628;BME280;68467;50.960;0.314;2024-02-16T05:46:41;99197.30;;;14.48;100.00
64628;BME280;68467;50.960;0.314;2024-02-16T05:49:08;99209.67;;;14.87;100.00
64628;BME280;68467;50.960;0.314;2024-02-16T05:51:35;99222.06;;;14.68;100.00
64628;BME280;68467;50.960;0.314;2024-02-16T05:54:03;99231.51;;;14.72;100.00
64628;BME280;68467;50.960;0.314;2024-02-16T05:56:30;99234.75;;;14.93;100.00
64628;BME280;68467;50.960;0.314;2024-02-16T05:58:56;99237.02;;;13.80;100.00
64628;BME280;68467;50.960;0.314;2024-02-16T06:01:23;99252.12;;;13.91;100.00
64628;BME280;68467;50.960;0.314;2024-02-16T06:03:51;99261.39;;;14.11;100.00
64628;BME280;68467;50.960;0.314;2024-02-16T06:06:18;99270.73;;;13.93;100.00
64628;BME280;68467;50.960;0.314;2024-02-16T06:08:45;99272.85;;;13.66;100.00
64628;BME280;68467;50.960;0.314;2024-02-16T06:11:13;99284.88;;;13.86;100.00
64628;BME280;68467;50.960;0.314;2024-02-16T06:13:40;99296.25;;;14.12;100.00
64628;BME280;68467;50.960;0.314;2024-02-16T06:16:08;99297.63;;;14.28;100.00
64628;BME280;68467;50.960;0.314;2024-02-16T06:18:35;99300.81;;;14.14;100.00
64628;BME280;68467;50.960;0.314;2024-02-16T06:21:03;99303.31;;;13.90;100.00
64628;BME280;68467;50.960;0.314;2024-02-16T06:23:31;99306.29;;;14.24;100.00
64628;BME280;68467;50.960;0.314;2024-02-16T06:25:58;99310.83;;;13.83;100.00
64628;BME280;68467;50.960;0.314;2024-02-16T06:28:25;99313.98;;;13.29;100.00
64628;BME280;68467;50.960;0.314;2024-02-16T06:30:51;99322.82;;;13.61;100.00
64628;BME280;68467;50.960;0.314;2024-02-16T06:33:18;99332.45;;;12.93;100.00
64628;BME280;68467;50.960;0.314;2024-02-16T06:35:46;99338.70;;;12.92;100.00
64628;BME280;68467;50.960;0.314;2024-02-16T06:38:13;99344.67;;;13.00;100.00
64628;BME280;68467;50.960;0.314;2024-02-16T06:40:40;99351.78;;;12.93;100.00
64628;BME280;68467;50.960;0.314;2024-02-16T06:43:07;99356.05;;;12.91;100.00
64628;BME280;68467;50.960;0.314;2024-02-16T06:45:34;99351.96;;;12.69;100.00
64628;BME280;68467;50.960;0.314;2024-02-16T06:48:01;99349.88;;;12.96;100.00
64628;BME280;68467;50.960;0.314;2024-02-16T06:50:28;99356.56;;;13.07;100.00
64628;BME280;68467;50.960;0.314;2024-02-16T06:52:55;99355.20;;;12.20;100.00
64628;BME280;68467;50.960;0.314;2024-02-16T06:55:22;99371.20;;;12.83;100.00
64628;BME280;68467;50.960;0.314;2024-02-16T06:57:49;99382.33;;;13.32;100.00
64628;BME280;68467;50.960;0.314;2024-02-16T07:00:18;99392.58;;;12.81;100.00
64628;BME280;68467;50.960;0.314;2024-02-16T07:02:45;99398.90;;;12.87;100.00
64628;BME280;68467;50.960;0.314;2024-02-16T07:05:12;99403.06;;;12.61;100.00
64628;BME280;68467;50.960;0.314;2024-02-16T07:07:40;99408.57;;;13.31;100.00
64628;BME280;68467;50.960;0.314;2024-02-16T07:10:08;99412.80;;;12.70;100.00
64628;BME280;68467;50.960;0.314;2024-02-16T07:12:36;99421.92;;;12.56;100.00
64628;BME280;68467;50.960;0.314;2024-02-16T07:15:04;99432.65;;;12.15;100.00
64628;BME280;68467;50.960;0.314;2024-02-16T07:17:30;99438.71;;;12.98;100.00
64628;BME280;68467;50.960;0.314;2024-02-16T07:19:58;99444.76;;;12.71;100.00
64628;BME280;68467;50.960;0.314;2024-02-16T07:22:25;99449.94;;;12.48;100.00
64628;BME280;68467;50.960;0.314;2024-02-16T07:24:52;99456.32;;;13.25;100.00
64628;BME280;68467;50.960;0.314;2024-02-16T07:27:19;99460.32;;;12.93;100.00
64628;BME280;68467;50.960;0.314;2024-02-16T07:29:46;99461.39;;;12.72;100.00
64628;BME280;68467;50.960;0.314;2024-02-16T07:32:13;99466.23;;;13.64;100.00
64628;BME280;68467;50.960;0.314;2024-02-16T07:34:40;99479.90;;;12.78;100.00
64628;BME280;68467;50.960;0.314;2024-02-16T07:37:07;99490.32;;;12.75;100.00
64628;BME280;68467;50.960;0.314;2024-02-16T07:39:35;99496.08;;;12.76;100.00
64628;BME280;68467;50.960;0.314;2024-02-16T07:42:02;99500.47;;;12.68;100.00
64628;BME280;68467;50.960;0.314;2024-02-16T07:44:30;99507.47;;;12.73;100.00
64628;BME280;68467;50.960;0.314;2024-02-16T07:46:57;99512.39;;;12.82;100.00
64628;BME280;68467;50.960;0.314;2024-02-16T07:49:24;99518.17;;;12.88;100.00
64628;BME280;68467;50.960;0.314;2024-02-16T07:51:52;99523.68;;;12.59;100.00
64628;BME280;68467;50.960;0.314;2024-02-16T07:54:19;99528.09;;;12.54;100.00
64628;BME280;68467;50.960;0.314;2024-02-16T07:56:46;99531.75;;;13.09;100.00
64628;BME280;68467;50.960;0.314;2024-02-16T07:59:13;99541.20;;;11.91;100.00
64628;BME280;68467;50.960;0.314;2024-02-16T08:01:40;99547.95;;;12.80;100.00
64628;BME280;68467;50.960;0.314;2024-02-16T08:04:07;99553.27;;;12.18;100.00
64628;BME280;68467;50.960;0.314;2024-02-16T08:06:34;99561.59;;;12.17;100.00
64628;BME280;68467;50.960;0.314;2024-02-16T08:09:02;99567.49;;;11.61;100.00
64628;BME280;68467;50.960;0.314;2024-02-16T08:11:30;99573.75;;;11.95;100.00
64628;BME280;68467;50.960;0.314;2024-02-16T08:13:57;99576.60;;;12.10;100.00
64628;BME280;68467;50.960;0.314;2024-02-16T08:16:24;99578.43;;;12.04;100.00
64628;BME280;68467;50.960;0.314;2024-02-16T08:18:51;99584.85;;;12.20;100.00
64628;BME280;68467;50.960;0.314;2024-02-16T08:21:19;99593.14;;;11.87;100.00
64628;BME280;68467;50.960;0.314;2024-02-16T08:23:46;99600.79;;;12.18;100.00
64628;BME280;68467;50.960;0.314;2024-02-16T08:26:13;99604.32;;;11.15;100.00
64628;BME280;68467;50.960;0.314;2024-02-16T08:28:43;99598.07;;;12.13;100.00
64628;BME280;68467;50.960;0.314;2024-02-16T08:31:14;99603.45;;;11.77;100.00
64628;BME280;68467;50.960;0.314;2024-02-16T08:33:42;99607.17;;;12.37;100.00
64628;BME280;68467;50.960;0.314;2024-02-16T08:36:09;99611.72;;;12.03;100.00
64628;BME280;68467;50.960;0.314;2024-02-16T08:38:36;99624.37;;;11.54;100.00
64628;BME280;68467;50.960;0.314;2024-02-16T08:41:04;99628.18;;;10.88;100.00
64628;BME280;68467;50.960;0.314;2024-02-16T08:43:32;99635.04;;;11.51;100.00
64628;BME280;68467;50.960;0.314;2024-02-16T08:45:59;99637.95;;;12.13;100.00
64628;BME280;68467;50.960;0.314;2024-02-16T08:48:26;99641.88;;;11.50;100.00
64628;BME280;68467;50.960;0.314;2024-02-16T08:50:53;99643.95;;;12.16;100.00
64628;BME280;68467;50.960;0.314;2024-02-16T08:53:20;99648.61;;;12.30;100.00
64628;BME280;68467;50.960;0.314;2024-02-16T08:55:47;99653.29;;;11.94;100.00
64628;BME280;68467;50.960;0.314;2024-02-16T08:58:14;99659.51;;;11.91;100.00
64628;BME280;68467;50.960;0.314;2024-02-16T09:00:41;99666.77;;;11.69;100.00
64628;BME280;68467;50.960;0.314;2024-02-16T09:03:08;99662.75;;;12.05;100.00
64628;BME280;68467;50.960;0.314;2024-02-16T09:05:35;99664.75;;;11.04;100.00
64628;BME280;68467;50.960;0.314;2024-02-16T09:08:03;99670.90;;;11.04;100.00
64628;BME280;68467;50.960;0.314;2024-02-16T09:10:31;99671.31;;;11.37;100.00
64628;BME280;68467;50.960;0.314;2024-02-16T09:12:58;99680.95;;;11.76;100.00
64628;BME280;68467;50.960;0.314;2024-02-16T09:15:25;99680.84;;;11.83;100.00
64628;BME280;68467;50.960;0.314;2024-02-16T09:17:52;99689.67;;;11.76;100.00
64628;BME280;68467;50.960;0.314;2024-02-16T09:20:19;99690.58;;;11.60;100.00
64628;BME280;68467;50.960;0.314;2024-02-16T09:22:47;99692.14;;;11.87;100.00
64628;BME280;68467;50.960;0.314;2024-02-16T09:25:15;99696.20;;;12.16;100.00
64628;BME280;68467;50.960;0.314;2024-02-16T09:27:42;99702.52;;;12.71;100.00
64628;BME280;68467;50.960;0.314;2024-02-16T09:30:10;99709.52;;;11.72;100.00
64628;BME280;68467;50.960;0.314;2024-02-16T09:32:39;99716.74;;;11.57;100.00
64628;BME280;68467;50.960;0.314;2024-02-16T09:35:07;99715.97;;;11.89;100.00
64628;BME280;68467;50.960;0.314;2024-02-16T09:37:35;99720.01;;;12.16;100.00
64628;BME280;68467;50.960;0.314;2024-02-16T09:40:04;99723.36;;;12.58;100.00
64628;BME280;68467;50.960;0.314;2024-02-16T09:42:33;99726.72;;;12.68;100.00
64628;BME280;68467;50.960;0.314;2024-02-16T09:45:06;99731.02;;;12.65;100.00
64628;BME280;68467;50.960;0.314;2024-02-16T09:47:34;99739.81;;;12.64;100.00
64628;BME280;68467;50.960;0.314;2024-02-16T09:50:01;99748.09;;;12.81;100.00
64628;BME280;68467;50.960;0.314;2024-02-16T09:52:28;99755.73;;;12.37;100.00
64628;BME280;68467;50.960;0.314;2024-02-16T09:54:55;99762.93;;;12.44;100.00
64628;BME280;68467;50.960;0.314;2024-02-16T09:57:23;99762.68;;;12.40;100.00
64628;BME280;68467;50.960;0.314;2024-02-16T09:59:50;99773.49;;;12.34;100.00
64628;BME280;68467;50.960;0.314;2024-02-16T10:02:18;99769.96;;;12.17;100.00
64628;BME280;68467;50.960;0.314;2024-02-16T10:04:45;99773.75;;;12.79;100.00
64628;BME280;68467;50.960;0.314;2024-02-16T10:07:12;99778.27;;;13.35;100.00
64628;BME280;68467;50.960;0.314;2024-02-16T10:09:39;99783.75;;;13.18;100.00
64628;BME280;68467;50.960;0.314;2024-02-16T10:12:07;99789.97;;;12.41;100.00
64628;BME280;68467;50.960;0.314;2024-02-16T10:14:34;99794.04;;;12.53;100.00
64628;BME280;68467;50.960;0.314;2024-02-16T10:17:02;99797.88;;;12.95;100.00
64628;BME280;68467;50.960;0.314;2024-02-16T10:19:29;99804.12;;;13.02;100.00
64628;BME280;68467;50.960;0.314;2024-02-16T10:22:08;99807.90;;;13.42;100.00
64628;BME280;68467;50.960;0.314;2024-02-16T10:24:35;99812.97;;;13.42;100.00
64628;BME280;68467;50.960;0.314;2024-02-16T10:27:03;99823.53;;;13.15;100.00
64628;BME280;68467;50.960;0.314;2024-02-16T10:29:30;99825.25;;;13.27;100.00
64628;BME280;68467;50.960;0.314;2024-02-16T10:31:59;99827.07;;;13.41;100.00
64628;BME280;68467;50.960;0.314;2024-02-16T10:34:27;99829.47;;;12.95;100.00
64628;BME280;68467;50.960;0.314;2024-02-16T10:36:56;99827.01;;;13.24;100.00
64628;BME280;68467;50.960;0.314;2024-02-16T10:39:24;99831.64;;;13.72;100.00
64628;BME280;68467;50.960;0.314;2024-02-16T10:41:52;99829.74;;;13.45;100.00
64628;BME280;68467;50.960;0.314;2024-02-16T10:44:20;99838.07;;;13.78;100.00
64628;BME280;68467;50.960;0.314;2024-02-16T10:46:48;99842.48;;;12.71;100.00
64628;BME280;68467;50.960;0.314;2024-02-16T10:49:16;99846.91;;;12.97;100.00
64628;BME280;68467;50.960;0.314;2024-02-16T10:51:46;99850.01;;;13.25;100.00
64628;BME280;68467;50.960;0.314;2024-02-16T10:54:17;99851.58;;;13.03;100.00
64628;BME280;68467;50.960;0.314;2024-02-16T10:56:45;99853.29;;;12.64;100.00
64628;BME280;68467;50.960;0.314;2024-02-16T10:59:12;99853.25;;;12.79;100.00
64628;BME280;68467;50.960;0.314;2024-02-16T11:01:40;99856.91;;;12.69;100.00
64628;BME280;68467;50.960;0.314;2024-02-16T11:04:08;99857.70;;;13.31;100.00
64628;BME280;68467;50.960;0.314;2024-02-16T11:06:53;99863.68;;;13.09;100.00
64628;BME280;68467;50.960;0.314;2024-02-16T11:09:26;99872.38;;;12.94;100.00
64628;BME280;68467;50.960;0.314;2024-02-16T11:11:53;99873.34;;;13.23;100.00
64628;BME280;68467;50.960;0.314;2024-02-16T11:14:22;99878.92;;;13.34;100.00
64628;BME280;68467;50.960;0.314;2024-02-16T11:16:49;99881.48;;;13.11;100.00
64628;BME280;68467;50.960;0.314;2024-02-16T11:19:16;99880.59;;;13.14;100.00
64628;BME280;68467;50.960;0.314;2024-02-16T11:21:56;99881.38;;;13.42;100.00
64628;BME280;68467;50.960;0.314;2024-02-16T11:24:30;99883.36;;;13.38;100.00
64628;BME280;68467;50.960;0.314;2024-02-16T11:26:57;99886.51;;;14.44;100.00
64628;BME280;68467;50.960;0.314;2024-02-16T11:29:25;99893.95;;;14.08;100.00
64628;BME280;68467;50.960;0.314;2024-02-16T11:31:55;99902.77;;;14.30;100.00
64628;BME280;68467;50.960;0.314;2024-02-16T11:34:23;99901.01;;;14.48;100.00
64628;BME280;68467;50.960;0.314;2024-02-16T11:36:52;99904.78;;;14.16;100.00
64628;BME280;68467;50.960;0.314;2024-02-16T11:39:20;99907.78;;;13.52;100.00
64628;BME280;68467;50.960;0.314;2024-02-16T11:41:48;99906.90;;;14.28;100.00
64628;BME280;68467;50.960;0.314;2024-02-16T11:44:14;99906.95;;;14.79;100.00
64628;BME280;68467;50.960;0.314;2024-02-16T11:46:42;99911.66;;;14.99;100.00
64628;BME280;68467;50.960;0.314;2024-02-16T11:49:09;99917.22;;;15.08;100.00
64628;BME280;68467;50.960;0.314;2024-02-16T11:51:37;99921.54;;;14.05;100.00
64628;BME280;68467;50.960;0.314;2024-02-16T11:54:04;99919.67;;;14.31;100.00
64628;BME280;68467;50.960;0.314;2024-02-16T11:56:32;99924.86;;;14.29;100.00
64628;BME280;68467;50.960;0.314;2024-02-16T11:58:59;99925.39;;;14.67;100.00
64628;BME280;68467;50.960;0.314;2024-02-16T12:01:26;99924.48;;;14.57;100.00
64628;BME280;68467;50.960;0.314;2024-02-16T12:03:53;99931.95;;;14.72;100.00
64628;BME280;68467;50.960;0.314;2024-02-16T12:06:21;99930.19;;;14.62;100.00
64628;BME280;68467;50.960;0.314;2024-02-16T12:08:50;99933.18;;;14.55;100.00
64628;BME280;68467;50.960;0.314;2024-02-16T12:11:17;99936.90;;;14.29;100.00
64628;BME280;68467;50.960;0.314;2024-02-16T12:13:44;99943.23;;;14.77;100.00
64628;BME280;68467;50.960;0.314;2024-02-16T12:16:12;99941.16;;;14.49;100.00
64628;BME280;68467;50.960;0.314;2024-02-16T12:18:39;99943.15;;;13.60;100.00
64628;BME280;68467;50.960;0.314;2024-02-16T12:21:06;99946.46;;;14.15;100.00
64628;BME280;68467;50.960;0.314;2024-02-16T12:23:35;99943.34;;;13.82;100.00
64628;BME280;68467;50.960;0.314;2024-02-16T12:26:03;99938.88;;;14.02;100.00
64628;BME280;68467;50.960;0.314;2024-02-16T12:28:31;99943.84;;;13.76;100.00
64628;BME280;68467;50.960;0.314;2024-02-16T12:30:59;99939.58;;;13.46;100.00
64628;BME280;68467;50.960;0.314;2024-02-16T12:33:27;99941.96;;;13.98;100.00
64628;BME280;68467;50.960;0.314;2024-02-16T12:35:54;99939.36;;;13.65;100.00
64628;BME280;68467;50.960;0.314;2024-02-16T12:38:21;99945.66;;;14.65;100.00
64628;BME280;68467;50.960;0.314;2024-02-16T12:40:49;99945.23;;;14.30;100.00
64628;BME280;68467;50.960;0.314;2024-02-16T12:43:16;99951.49;;;14.41;100.00
64628;BME280;68467;50.960;0.314;2024-02-16T12:45:43;99948.10;;;14.01;100.00
64628;BME280;68467;50.960;0.314;2024-02-16T12:48:10;99955.79;;;14.05;100.00
64628;BME280;68467;50.960;0.314;2024-02-16T12:50:37;99952.00;;;14.05;100.00